Time;durP1;ratioP1;P1;durP2;ratioP2;P2;SDS_P1;SDS_P2;PMS_P1;PMS_P2;Temp;Humidity;BMP_temperature;BMP_pressure;BME280_temperature;BME280_humidity;BME280_pressure;Samples;Min_cycle;Max_cycle;Signal;HPM_P1;HPM_P2
2021/01/27 00:01:33;;;;;;;5.20;2.40;;;0.10;99.90;;;;;;5036437;28;20040;-83
2021/01/27 00:03:58;;;;;;;4.63;2.53;;;0.10;99.90;;;;;;5032936;28;20528;-85
2021/01/27 00:06:24;;;;;;;4.43;1.80;;;0.10;99.90;;;;;;5027882;28;20038;-85
2021/01/27 00:08:50;;;;;;;5.37;2.60;;;0.10;99.90;;;;;;5033179;28;20050;-85
2021/01/27 00:11:15;;;;;;;7.07;2.20;;;0.10;99.90;;;;;;5053322;28;20040;-85
2021/01/27 00:13:41;;;;;;;4.67;2.20;;;0.10;99.90;;;;;;5053668;28;20048;-86
2021/01/27 00:16:08;;;;;;;4.70;2.43;;;0.10;99.90;;;;;;5034714;28;20063;-84
2021/01/27 00:18:35;;;;;;;7.20;2.00;;;0.10;99.90;;;;;;5037712;28;20495;-84
2021/01/27 00:21:00;;;;;;;4.93;2.00;;;0.10;99.90;;;;;;5034335;28;20044;-85
2021/01/27 00:23:26;;;;;;;4.80;1.70;;;0.10;99.90;;;;;;5034350;28;20380;-85
2021/01/27 00:25:52;;;;;;;3.37;2.00;;;0.10;99.90;;;;;;5030265;28;20123;-84
2021/01/27 00:28:17;;;;;;;2.37;1.70;;;0.10;99.90;;;;;;5052763;28;20072;-86
2021/01/27 00:30:45;;;;;;;4.23;2.03;;;0.00;99.90;;;;;;5036710;28;20036;-85
2021/01/27 00:33:13;;;;;;;5.53;2.40;;;0.10;99.90;;;;;;5052824;28;20029;-84
2021/01/27 00:35:42;;;;;;;3.83;1.20;;;0.10;99.90;;;;;;5052542;28;20070;-86
2021/01/27 00:38:27;;;;;;;4.83;2.33;;;0.10;99.90;;;;;;5053239;28;20566;-85
2021/01/27 00:40:54;;;;;;;6.40;2.00;;;0.20;99.90;;;;;;5033834;28;20506;-84
2021/01/27 00:43:21;;;;;;;3.17;1.40;;;0.10;99.90;;;;;;5056773;28;20200;-86
2021/01/27 00:45:48;;;;;;;7.87;1.90;;;0.10;99.90;;;;;;5036091;28;20021;-85
2021/01/27 00:48:14;;;;;;;4.43;2.37;;;0.10;99.90;;;;;;5013886;28;20057;-85
2021/01/27 00:50:40;;;;;;;4.00;2.07;;;0.10;99.90;;;;;;5068051;28;20052;-85
2021/01/27 00:53:06;;;;;;;5.87;2.40;;;0.10;99.90;;;;;;5074554;28;20079;-84
2021/01/27 00:55:31;;;;;;;4.53;2.30;;;0.10;99.90;;;;;;5072229;28;20117;-86
2021/01/27 00:57:58;;;;;;;6.87;2.20;;;0.10;99.90;;;;;;5056585;28;20048;-86
2021/01/27 01:00:28;;;;;;;3.73;2.37;;;0.10;99.90;;;;;;5038672;28;20029;-85
2021/01/27 01:02:55;;;;;;;4.37;1.83;;;0.10;99.90;;;;;;5057493;28;20090;-85
2021/01/27 01:05:25;;;;;;;2.90;1.97;;;0.00;99.90;;;;;;5056439;28;20033;-86
2021/01/27 01:07:51;;;;;;;3.13;1.90;;;0.00;99.90;;;;;;5043336;28;20098;-86
2021/01/27 01:10:26;;;;;;;4.03;2.27;;;0.00;99.90;;;;;;5055944;28;20021;-84
2021/01/27 01:12:53;;;;;;;4.73;2.20;;;0.00;99.90;;;;;;5053008;28;20032;-85
2021/01/27 01:15:21;;;;;;;4.47;2.00;;;0.00;99.90;;;;;;5052047;28;20026;-85
2021/01/27 01:17:47;;;;;;;4.17;2.20;;;-0.10;99.90;;;;;;5061340;28;20041;-84
2021/01/27 01:20:14;;;;;;;3.60;2.10;;;-0.10;99.90;;;;;;5070739;28;20095;-85
2021/01/27 01:22:43;;;;;;;1.77;1.33;;;-0.10;99.90;;;;;;5040281;28;20159;-85
2021/01/27 01:25:09;;;;;;;4.53;2.10;;;-0.10;99.90;;;;;;5056200;28;20067;-85
2021/01/27 01:27:35;;;;;;;5.60;2.30;;;-0.10;99.90;;;;;;5036124;28;20041;-86
2021/01/27 01:30:00;;;;;;;3.63;2.33;;;-0.10;99.90;;;;;;5050378;28;20021;-84
2021/01/27 01:32:26;;;;;;;5.60;1.83;;;-0.10;99.90;;;;;;5025481;28;20034;-85
2021/01/27 01:34:52;;;;;;;2.90;1.53;;;-0.10;99.90;;;;;;5045166;28;20033;-84
2021/01/27 01:37:18;;;;;;;3.93;1.70;;;-0.10;99.90;;;;;;5046388;28;20035;-83
2021/01/27 01:39:43;;;;;;;5.53;2.20;;;-0.10;99.90;;;;;;5051458;28;20529;-84
2021/01/27 01:42:09;;;;;;;4.30;2.00;;;-0.10;99.90;;;;;;5049887;28;20458;-84
2021/01/27 01:44:34;;;;;;;2.57;1.30;;;-0.20;99.90;;;;;;5056944;28;20033;-85
2021/01/27 01:47:00;;;;;;;6.27;1.93;;;-0.20;99.90;;;;;;5054707;28;20056;-85
2021/01/27 01:49:26;;;;;;;4.20;1.77;;;-0.20;99.90;;;;;;5053144;28;20075;-86
2021/01/27 01:51:59;;;;;;;5.17;2.00;;;-0.10;99.90;;;;;;5056869;28;20674;-84
2021/01/27 01:54:38;;;;;;;7.03;2.37;;;-0.20;99.90;;;;;;5048306;28;20087;-84
2021/01/27 01:57:14;;;;;;;6.53;2.28;;;-0.20;99.90;;;;;;5040355;28;20530;-85
2021/01/27 01:59:51;;;;;;;4.80;2.27;;;-0.20;99.90;;;;;;5041276;28;20041;-87
2021/01/27 02:02:17;;;;;;;4.77;2.20;;;-0.20;99.90;;;;;;5051260;28;20029;-83
2021/01/27 02:05:01;;;;;;;4.73;2.20;;;-0.30;99.90;;;;;;5052246;28;20021;-85
2021/01/27 02:07:27;;;;;;;3.90;2.00;;;-0.30;99.90;;;;;;5056589;28;20470;-86
2021/01/27 02:09:57;;;;;;;3.40;1.87;;;-0.30;99.90;;;;;;5057678;28;20110;-85
2021/01/27 02:13:00;;;;;;;6.00;2.17;;;-0.30;99.90;;;;;;5034165;28;20060;-85
2021/01/27 02:16:20;;;;;;;4.53;2.07;;;-0.30;99.90;;;;;;5031566;28;20090;-86
2021/01/27 02:19:10;;;;;;;3.80;2.30;;;-0.30;99.90;;;;;;4983445;28;20424;-84
2021/01/27 02:21:50;;;;;;;;;;;-0.30;99.90;;;;;;4978180;28;20053;-84
2021/01/27 02:24:36;;;;;;;6.63;2.33;;;-0.30;99.90;;;;;;5008923;28;19978;-85
2021/01/27 02:27:23;;;;;;;6.00;1.83;;;-0.40;99.90;;;;;;5007770;28;20038;-83
2021/01/27 02:30:21;;;;;;;3.03;1.47;;;-0.30;99.90;;;;;;4979277;28;20378;-85
2021/01/27 02:33:14;;;;;;;4.70;2.00;;;-0.40;99.90;;;;;;4980422;28;20030;-87
2021/01/27 02:35:53;;;;;;;4.73;1.87;;;-0.30;99.90;;;;;;4997544;28;20031;-88
2021/01/27 02:38:28;;;;;;;4.03;2.40;;;-0.30;99.90;;;;;;5002870;28;20030;-85
2021/01/27 02:41:08;;;;;;;2.63;1.40;;;-0.40;99.90;;;;;;5016603;28;20034;-86
2021/01/27 02:43:36;;;;;;;3.33;1.30;;;-0.40;99.90;;;;;;5012991;28;20026;-85
2021/01/27 02:46:19;;;;;;;3.23;1.70;;;-0.40;99.90;;;;;;5005698;28;20122;-87
2021/01/27 02:48:53;;;;;;;3.30;1.43;;;-0.40;99.90;;;;;;4980010;28;20441;-86
2021/01/27 02:51:26;;;;;;;4.80;1.83;;;-0.40;99.90;;;;;;4998412;28;20085;-87
2021/01/27 02:54:12;;;;;;;5.53;1.90;;;-0.40;99.90;;;;;;5037728;28;20021;-86
2021/01/27 02:56:43;;;;;;;2.70;1.60;;;-0.50;99.90;;;;;;5044242;28;20040;-85
2021/01/27 02:59:20;;;;;;;3.73;2.10;;;-0.50;99.90;;;;;;5051906;28;20017;-86
2021/01/27 03:02:00;;;;;;;5.57;2.37;;;-0.50;99.90;;;;;;5037381;28;20083;-86
2021/01/27 03:04:33;;;;;;;5.63;2.40;;;-0.50;99.90;;;;;;5037689;28;20037;-85
2021/01/27 03:07:02;;;;;;;3.83;2.10;;;-0.60;99.90;;;;;;5028661;28;20060;-85
2021/01/27 03:09:45;;;;;;;5.38;1.98;;;-0.70;99.90;;;;;;5020542;28;20485;-87
2021/01/27 03:12:11;;;;;;;4.40;2.30;;;-0.80;99.90;;;;;;5020513;28;20570;-86
2021/01/27 03:14:37;;;;;;;5.27;2.03;;;-0.80;99.90;;;;;;5039476;28;20034;-87
2021/01/27 03:17:09;;;;;;;7.17;2.50;;;-0.90;99.90;;;;;;5034799;28;20041;-85
2021/01/27 03:19:39;;;;;;;4.77;2.23;;;-0.90;99.90;;;;;;5010978;28;20041;-87
2021/01/27 03:22:14;;;;;;;5.00;2.00;;;-1.00;99.90;;;;;;5045273;28;20026;-86
2021/01/27 03:24:53;;;;;;;6.87;2.20;;;-1.00;99.90;;;;;;5056536;28;20044;-86
2021/01/27 03:27:22;;;;;;;;;;;-1.10;99.90;;;;;;5074166;28;20041;-83
2021/01/27 03:29:52;;;;;;;3.63;1.87;;;-1.10;99.90;;;;;;5072402;28;19913;-85
2021/01/27 03:32:27;;;;;;;3.80;1.90;;;-1.10;99.90;;;;;;5068393;28;20291;-86
2021/01/27 03:35:01;;;;;;;3.37;2.00;;;-1.10;99.90;;;;;;5044024;28;20369;-88
2021/01/27 03:37:50;;;;;;;4.00;1.93;;;-1.20;99.90;;;;;;5056717;28;20036;-86
2021/01/27 03:40:19;;;;;;;5.00;2.17;;;-1.30;99.90;;;;;;5044828;28;20468;-87
2021/01/27 03:42:48;;;;;;;3.47;2.15;;;-1.30;99.90;;;;;;5055916;28;20040;-86
2021/01/27 03:45:16;;;;;;;5.10;2.50;;;-1.30;99.90;;;;;;5055578;28;20537;-86
2021/01/27 03:48:05;;;;;;;5.67;2.70;;;-1.40;99.90;;;;;;5054225;28;20064;-84
2021/01/27 03:50:31;;;;;;;6.88;2.78;;;-1.40;99.90;;;;;;5033280;28;20033;-87
2021/01/27 03:53:04;;;;;;;6.87;2.63;;;-1.50;99.90;;;;;;5055896;28;20029;-85
2021/01/27 03:55:40;;;;;;;6.07;2.90;;;-1.50;99.90;;;;;;5056337;28;20017;-87
2021/01/27 03:58:24;;;;;;;9.30;4.93;;;-1.60;99.90;;;;;;5047715;28;20029;-86
2021/01/27 04:00:50;;;;;;;8.87;3.80;;;-1.60;99.90;;;;;;5050202;28;20530;-87
2021/01/27 04:03:21;;;;;;;8.60;3.30;;;-1.60;99.90;;;;;;5038860;28;20128;-87
2021/01/27 04:05:48;;;;;;;6.70;2.90;;;-1.70;99.90;;;;;;5037811;28;20376;-87
2021/01/27 04:08:14;;;;;;;9.57;2.87;;;-1.70;99.90;;;;;;5054143;28;20051;-87
2021/01/27 04:10:40;;;;;;;7.77;3.00;;;-1.80;99.90;;;;;;5038214;28;20036;-88
2021/01/27 04:13:06;;;;;;;6.43;2.70;;;-1.80;99.90;;;;;;5037732;28;20472;-88
2021/01/27 04:15:32;;;;;;;5.33;2.40;;;-1.80;99.90;;;;;;5037546;28;20438;-87
2021/01/27 04:17:57;;;;;;;8.40;2.60;;;-1.80;99.90;;;;;;5033694;28;20043;-87
2021/01/27 04:20:24;;;;;;;4.30;2.53;;;-1.80;99.90;;;;;;5039285;28;20020;-88
2021/01/27 04:22:50;;;;;;;3.90;2.30;;;-1.80;99.90;;;;;;5040281;28;20044;-87
2021/01/27 04:25:15;;;;;;;4.80;2.27;;;-1.80;99.90;;;;;;5027748;28;20060;-87
2021/01/27 04:27:41;;;;;;;4.53;1.97;;;-1.80;99.90;;;;;;5019931;28;20504;-87
2021/01/27 04:30:09;;;;;;;5.77;2.10;;;-1.80;99.90;;;;;;5023293;28;20029;-88
2021/01/27 04:32:36;;;;;;;8.73;2.47;;;-1.80;99.90;;;;;;5037265;28;20120;-87
2021/01/27 04:35:03;;;;;;;4.53;2.00;;;-1.80;99.90;;;;;;5053207;28;20225;-86
2021/01/27 04:37:28;;;;;;;4.90;2.10;;;-1.80;99.90;;;;;;5052839;28;20025;-86
2021/01/27 04:39:54;;;;;;;4.87;2.30;;;-1.90;99.90;;;;;;5041341;28;20059;-86
2021/01/27 04:42:25;;;;;;;8.23;2.30;;;-1.90;99.90;;;;;;5023653;28;20037;-86
2021/01/27 04:44:54;;;;;;;7.90;2.40;;;-1.90;99.90;;;;;;5039235;28;20064;-85
2021/01/27 04:47:31;;;;;;;5.20;2.10;;;-2.00;99.90;;;;;;5037132;28;20117;-86
2021/01/27 04:50:04;;;;;;;4.77;2.10;;;-2.00;99.90;;;;;;5037953;28;20124;-85
2021/01/27 04:53:00;;;;;;;6.60;1.90;;;-2.00;99.90;;;;;;5034162;28;20029;-81
2021/01/27 04:55:52;;;;;;;3.40;1.80;;;-2.10;99.90;;;;;;5034354;28;20029;-84
2021/01/27 04:58:27;;;;;;;3.90;2.00;;;-2.10;99.90;;;;;;5028722;28;20040;-82
2021/01/27 05:01:16;;;;;;;4.03;1.90;;;-2.10;99.90;;;;;;5034786;28;20396;-82
2021/01/27 05:04:19;;;;;;;3.53;2.10;;;-2.10;99.90;;;;;;5042306;28;20037;-82
2021/01/27 05:06:49;;;;;;;4.00;2.20;;;-2.20;99.90;;;;;;5054110;28;20010;-81
2021/01/27 05:09:20;;;;;;;4.43;1.90;;;-2.20;99.90;;;;;;5053368;28;20057;-80
2021/01/27 05:11:47;;;;;;;3.47;1.97;;;-2.20;99.90;;;;;;5044587;28;20091;-84
2021/01/27 05:14:17;;;;;;;4.60;2.37;;;-2.20;99.90;;;;;;5044245;28;20032;-87
2021/01/27 05:16:45;;;;;;;6.23;2.30;;;-2.20;99.90;;;;;;5027832;28;20029;-88
2021/01/27 05:19:11;;;;;;;5.70;2.55;;;-2.20;99.90;;;;;;5038017;28;20540;-86
2021/01/27 05:21:41;;;;;;;5.00;2.33;;;-2.20;99.90;;;;;;5036758;28;20064;-86
2021/01/27 05:24:07;;;;;;;4.93;2.67;;;-2.20;99.90;;;;;;5022221;28;20047;-86
2021/01/27 05:26:51;;;;;;;5.47;2.20;;;-2.20;99.90;;;;;;5040847;28;20474;-89
2021/01/27 05:29:29;;;;;;;4.73;2.37;;;-2.30;99.90;;;;;;5057772;28;20550;-86
2021/01/27 05:32:08;;;;;;;5.63;2.10;;;-2.30;99.90;;;;;;5038453;28;20431;-82
2021/01/27 05:34:47;;;;;;;9.18;2.42;;;-2.20;99.90;;;;;;5039801;28;20064;-85
2021/01/27 05:37:30;;;;;;;6.88;2.40;;;-2.20;99.90;;;;;;5055615;28;20036;-77
2021/01/27 05:40:16;;;;;;;5.53;2.40;;;-2.20;99.90;;;;;;5050114;28;20091;-76
2021/01/27 05:42:43;;;;;;;6.57;2.50;;;-2.20;99.90;;;;;;5052721;28;20043;-76
2021/01/27 05:45:30;;;;;;;4.30;1.80;;;-2.20;99.90;;;;;;5051415;28;20040;-79
2021/01/27 05:48:28;;;;;;;5.10;1.97;;;-2.20;99.90;;;;;;5046586;28;20070;-79
2021/01/27 05:51:12;;;;;;;3.60;2.00;;;-2.10;99.90;;;;;;5051357;28;20017;-76
2021/01/27 05:53:38;;;;;;;3.87;2.00;;;-2.10;99.90;;;;;;5048575;28;20068;-78
2021/01/27 05:56:20;;;;;;;3.63;2.10;;;-2.10;99.90;;;;;;5050014;28;20100;-77
2021/01/27 05:59:06;;;;;;;8.27;2.17;;;-2.10;99.90;;;;;;5048870;28;20043;-76
2021/01/27 06:01:35;;;;;;;7.40;2.40;;;-2.10;99.90;;;;;;5046737;28;20539;-78
2021/01/27 06:04:12;;;;;;;6.43;2.10;;;-2.10;99.90;;;;;;5050873;28;20072;-77
2021/01/27 06:06:40;;;;;;;5.50;2.00;;;-2.10;99.90;;;;;;5051111;28;20033;-76
2021/01/27 06:09:07;;;;;;;5.70;2.13;;;-2.00;99.90;;;;;;5044751;28;20041;-78
2021/01/27 06:11:33;;;;;;;8.97;2.60;;;-2.10;99.90;;;;;;5050387;28;20568;-77
2021/01/27 06:14:18;;;;;;;4.10;2.37;;;-2.00;99.90;;;;;;5050666;28;20017;-77
2021/01/27 06:16:47;;;;;;;5.77;2.03;;;-2.00;99.90;;;;;;5049546;28;20033;-76
2021/01/27 06:19:24;;;;;;;5.90;2.53;;;-2.00;99.90;;;;;;5047049;28;20075;-76
2021/01/27 06:22:04;;;;;;;3.97;2.00;;;-2.00;99.90;;;;;;5049303;28;20514;-76
2021/01/27 06:24:53;;;;;;;6.70;2.05;;;-2.00;99.90;;;;;;5050237;28;20056;-76
2021/01/27 06:27:30;;;;;;;7.15;2.03;;;-2.00;99.90;;;;;;5049330;28;20041;-77
2021/01/27 06:30:22;;;;;;;8.17;2.00;;;-2.00;99.90;;;;;;5050031;28;20120;-76
2021/01/27 06:32:48;;;;;;;3.53;1.80;;;-1.90;99.90;;;;;;5048341;28;20512;-77
2021/01/27 06:35:36;;;;;;;4.67;2.60;;;-2.00;99.90;;;;;;5050190;28;20070;-78
2021/01/27 06:38:21;;;;;;;4.40;2.35;;;-2.00;99.90;;;;;;5049818;28;20321;-76
2021/01/27 06:40:57;;;;;;;4.37;2.30;;;-1.90;99.90;;;;;;5049271;28;20415;-76
2021/01/27 06:43:31;;;;;;;6.10;2.43;;;-2.00;99.90;;;;;;5048615;28;20068;-75
2021/01/27 06:46:05;;;;;;;8.77;2.90;;;-2.00;99.90;;;;;;5048602;28;20036;-76
2021/01/27 06:48:45;;;;;;;6.40;2.50;;;-2.00;99.90;;;;;;5052751;28;20037;-77
2021/01/27 06:51:29;;;;;;;;;;;-1.90;99.90;;;;;;5048737;28;20033;-77
2021/01/27 06:54:04;;;;;;;6.07;2.43;;;-1.90;99.90;;;;;;5048862;28;20630;-76
2021/01/27 06:57:07;;;;;;;3.77;2.03;;;-1.90;99.90;;;;;;5049995;28;20128;-77
2021/01/27 06:59:45;;;;;;;5.57;1.90;;;-1.90;99.90;;;;;;4986329;28;20121;-78
2021/01/27 07:02:46;;;;;;;4.97;2.10;;;-1.90;99.90;;;;;;4986562;28;20038;-76
2021/01/27 07:05:12;;;;;;;4.37;2.10;;;-1.90;99.90;;;;;;4983229;28;20113;-77
2021/01/27 07:08:02;;;;;;;4.17;1.90;;;-1.80;99.90;;;;;;4978089;28;20591;-78
2021/01/27 07:10:52;;;;;;;5.10;2.00;;;-1.70;99.90;;;;;;4994947;28;20077;-79
2021/01/27 07:13:38;;;;;;;7.57;2.00;;;-1.60;99.90;;;;;;4972326;28;20113;-77
2021/01/27 07:16:11;;;;;;;5.03;2.10;;;-1.60;99.90;;;;;;4986927;28;20042;-77
2021/01/27 07:18:58;;;;;;;5.17;1.80;;;-1.60;99.90;;;;;;4974970;28;20172;-77
2021/01/27 07:21:45;;;;;;;5.77;1.90;;;-1.50;99.90;;;;;;4979648;28;20027;-77
2021/01/27 07:24:17;;;;;;;4.97;2.07;;;-1.60;99.90;;;;;;4978792;28;20043;-76
2021/01/27 07:27:04;;;;;;;4.20;1.93;;;-1.60;99.90;;;;;;4991592;28;20110;-77
2021/01/27 07:29:36;;;;;;;6.20;2.23;;;-1.50;99.90;;;;;;4987363;28;20054;-76
2021/01/27 07:32:17;;;;;;;7.23;2.40;;;-1.50;99.90;;;;;;4980264;28;20136;-76
2021/01/27 07:34:49;;;;;;;3.87;1.90;;;-1.50;99.90;;;;;;4979336;28;20034;-77
2021/01/27 07:37:36;;;;;;;5.10;1.97;;;-1.40;99.90;;;;;;5046616;28;20048;-78
2021/01/27 07:40:09;;;;;;;5.57;2.37;;;-1.40;99.90;;;;;;5048753;28;20020;-77
2021/01/27 07:42:58;;;;;;;4.77;2.23;;;-1.40;99.90;;;;;;5047803;28;20043;-77
2021/01/27 07:45:35;;;;;;;7.15;1.75;;;-1.40;99.90;;;;;;5048607;28;20053;-77
2021/01/27 07:48:18;;;;;;;6.93;1.90;;;-1.40;99.90;;;;;;5048435;28;20080;-75
2021/01/27 07:51:24;;;;;;;6.70;2.13;;;-1.40;99.90;;;;;;5045573;28;20036;-77
2021/01/27 07:54:06;;;;;;;15.47;3.20;;;-1.30;99.90;;;;;;4971750;28;20404;-75
2021/01/27 07:56:39;;;;;;;6.60;1.90;;;-1.20;99.90;;;;;;4974436;28;20050;-76
2021/01/27 07:59:15;;;;;;;5.63;2.10;;;-1.10;99.90;;;;;;4968226;28;20039;-77
2021/01/27 08:01:48;;;;;;;4.87;2.33;;;-1.10;99.90;;;;;;4966814;28;20160;-76
2021/01/27 08:04:40;;;;;;;4.80;2.10;;;-1.00;99.90;;;;;;4971363;28;20097;-74
2021/01/27 08:07:15;;;;;;;6.60;2.70;;;-0.90;99.90;;;;;;4965240;28;20498;-76
2021/01/27 08:09:42;;;;;;;5.90;2.30;;;-0.80;99.90;;;;;;4971863;28;20049;-76
2021/01/27 08:12:18;;;;;;;5.37;1.60;;;-0.80;99.90;;;;;;4965615;28;20453;-76
2021/01/27 08:15:09;;;;;;;11.07;2.00;;;-0.70;99.90;;;;;;4963047;28;20038;-75
2021/01/27 08:17:44;;;;;;;6.20;2.10;;;-0.80;99.90;;;;;;4961808;28;20085;-75
2021/01/27 08:20:31;;;;;;;4.80;1.93;;;-0.70;99.90;;;;;;4970775;28;20047;-76
2021/01/27 08:23:21;;;;;;;5.10;2.13;;;-0.50;99.90;;;;;;4966190;28;20561;-76
2021/01/27 08:26:00;;;;;;;6.70;3.13;;;-0.40;99.90;;;;;;4872326;29;20053;-76
2021/01/27 08:28:29;;;;;;;;;;;-0.30;99.90;;;;;;4872150;29;20088;-76
2021/01/27 08:31:12;;;;;;;5.30;2.10;;;-0.10;99.90;;;;;;4908374;29;19910;-76
2021/01/27 08:33:47;;;;;;;5.40;1.97;;;0.10;99.90;;;;;;4930074;29;21082;-76
2021/01/27 08:36:19;;;;;;;4.17;1.70;;;0.20;99.90;;;;;;4932153;29;20070;-78
2021/01/27 08:39:07;;;;;;;4.93;2.00;;;0.30;99.90;;;;;;4928610;29;20039;-77
2021/01/27 08:41:42;;;;;;;5.07;2.30;;;0.40;99.90;;;;;;4931597;29;20031;-76
2021/01/27 08:44:20;;;;;;;3.67;1.80;;;0.50;99.90;;;;;;4928175;29;20388;-77
2021/01/27 08:46:52;;;;;;;5.13;2.17;;;0.70;99.90;;;;;;4928390;29;20039;-78
2021/01/27 08:49:35;;;;;;;3.90;1.70;;;0.70;99.90;;;;;;4928669;29;20830;-77
2021/01/27 08:52:08;;;;;;;4.70;1.97;;;0.80;99.90;;;;;;4928713;29;20036;-77
2021/01/27 08:54:37;;;;;;;6.27;2.10;;;0.80;99.90;;;;;;4926376;29;20617;-77
2021/01/27 08:57:37;;;;;;;4.43;1.77;;;0.80;99.90;;;;;;4926715;29;20051;-78
2021/01/27 09:00:09;;;;;;;6.00;2.40;;;0.80;99.90;;;;;;4928066;29;20066;-76
2021/01/27 09:02:59;;;;;;;4.80;2.73;;;0.90;99.90;;;;;;4977822;28;20091;-77
2021/01/27 09:05:24;;;;;;;5.00;2.58;;;0.90;99.90;;;;;;5041584;28;20045;-78
2021/01/27 09:07:53;;;;;;;5.18;3.08;;;1.10;99.90;;;;;;5047513;28;20145;-77
2021/01/27 09:10:28;;;;;;;5.18;2.47;;;1.30;99.90;;;;;;5044278;28;20029;-80
2021/01/27 09:12:55;;;;;;;6.75;2.67;;;1.40;99.90;;;;;;5048231;28;20108;-83
2021/01/27 09:15:29;;;;;;;7.00;2.60;;;1.50;99.90;;;;;;5052514;28;20096;-82
2021/01/27 09:17:59;;;;;;;7.30;2.60;;;1.60;99.90;;;;;;5048617;28;20032;-83
2021/01/27 09:20:31;;;;;;;5.55;2.60;;;1.70;99.90;;;;;;5053115;28;20096;-79
2021/01/27 09:23:02;;;;;;;7.00;2.53;;;1.70;99.90;;;;;;5052078;28;20025;-81
2021/01/27 09:25:32;;;;;;;5.88;2.47;;;1.70;99.90;;;;;;5033924;28;20076;-81
2021/01/27 09:28:05;;;;;;;;;;;1.80;99.90;;;;;;5051696;28;20181;-86
2021/01/27 09:30:32;;;;;;;7.45;3.00;;;1.90;99.90;;;;;;5052181;28;19908;-81
2021/01/27 09:33:17;;;;;;;5.97;2.75;;;2.00;99.90;;;;;;5052861;28;20025;-83
2021/01/27 09:35:45;;;;;;;7.85;2.63;;;2.10;99.90;;;;;;5051739;28;20035;-84
2021/01/27 09:38:18;;;;;;;6.10;2.65;;;2.10;99.90;;;;;;5048580;28;20035;-81
2021/01/27 09:40:53;;;;;;;5.60;2.83;;;2.10;99.90;;;;;;5051885;28;20384;-82
2021/01/27 09:43:21;;;;;;;5.63;2.55;;;2.20;99.90;;;;;;5052424;28;20098;-82
2021/01/27 09:45:49;;;;;;;6.68;2.33;;;2.30;99.90;;;;;;5050895;28;20024;-83
2021/01/27 09:48:17;;;;;;;7.18;2.30;;;2.50;99.90;;;;;;5050261;28;20037;-82
2021/01/27 09:50:52;;;;;;;6.82;3.00;;;2.70;99.90;;;;;;5048482;28;20033;-81
2021/01/27 09:53:28;;;;;;;7.68;2.78;;;2.70;99.90;;;;;;5052959;28;20104;-82
2021/01/27 09:55:54;;;;;;;4.65;2.40;;;2.80;99.90;;;;;;5051498;28;20115;-83
2021/01/27 09:58:21;;;;;;;4.70;2.35;;;3.00;99.90;;;;;;5047101;28;20052;-82
2021/01/27 10:00:49;;;;;;;6.55;2.50;;;3.10;99.90;;;;;;5051423;28;20021;-83
2021/01/27 10:03:45;;;;;;;5.60;2.20;;;3.30;99.90;;;;;;5052838;28;20066;-84
2021/01/27 10:06:32;;;;;;;4.43;2.28;;;3.50;99.90;;;;;;5055253;28;20082;-83
2021/01/27 10:08:59;;;;;;;2.67;1.67;;;3.40;99.90;;;;;;5052596;28;20041;-82
2021/01/27 10:11:29;;;;;;;3.72;1.48;;;3.40;99.90;;;;;;5051838;28;20048;-82
2021/01/27 10:14:22;;;;;;;4.22;1.70;;;3.20;99.90;;;;;;5051671;28;20021;-84
2021/01/27 10:16:56;;;;;;;4.68;1.67;;;3.10;99.90;;;;;;5034138;28;20430;-82
2021/01/27 10:19:32;;;;;;;5.35;1.52;;;3.00;99.90;;;;;;5051992;28;20091;-81
2021/01/27 10:22:00;;;;;;;4.07;1.83;;;2.40;99.90;;;;;;5046563;28;20028;-82
2021/01/27 10:24:48;;;;;;;10.50;4.75;;;2.40;99.90;;;;;;5052444;28;20499;-81
2021/01/27 10:27:33;;;;;;;5.05;2.33;;;2.40;99.90;;;;;;5053629;28;20025;-83
2021/01/27 10:30:00;;;;;;;6.20;2.63;;;2.60;99.90;;;;;;5050019;28;20033;-82
2021/01/27 10:32:34;;;;;;;4.55;1.98;;;2.60;99.90;;;;;;5053872;28;20113;-82
2021/01/27 10:35:01;;;;;;;3.35;1.50;;;2.30;99.90;;;;;;5052239;28;20063;-82
2021/01/27 10:37:36;;;;;;;3.58;1.92;;;1.90;99.90;;;;;;5048828;28;20040;-83
2021/01/27 10:40:11;;;;;;;3.22;1.90;;;1.80;99.90;;;;;;5051565;28;20404;-81
2021/01/27 10:42:41;;;;;;;4.65;1.25;;;1.90;99.90;;;;;;5049881;28;20025;-80
2021/01/27 10:45:24;;;;;;;3.53;1.85;;;2.10;99.90;;;;;;5050921;28;20109;-82
2021/01/27 10:48:01;;;;;;;2.28;1.10;;;2.20;99.90;;;;;;5060023;28;20102;-82
2021/01/27 10:50:28;;;;;;;2.88;1.10;;;2.20;99.90;;;;;;5046381;28;20075;-84
2021/01/27 10:52:56;;;;;;;2.87;1.40;;;2.00;99.90;;;;;;5050358;28;20021;-83
2021/01/27 10:55:26;;;;;;;2.25;1.08;;;2.00;99.90;;;;;;5033336;28;20033;-83
2021/01/27 10:58:12;;;;;;;2.08;1.20;;;2.30;99.90;;;;;;5051828;28;20028;-80
2021/01/27 11:00:38;;;;;;;3.67;1.52;;;2.50;99.90;;;;;;5050160;28;20025;-83
2021/01/27 11:03:05;;;;;;;2.05;1.23;;;2.30;99.90;;;;;;5034713;28;20021;-83
2021/01/27 11:05:32;;;;;;;2.28;0.90;;;2.30;99.90;;;;;;5071178;28;20028;-81
2021/01/27 11:07:58;;;;;;;3.42;1.50;;;2.10;99.90;;;;;;5058368;28;20031;-82
2021/01/27 11:10:24;;;;;;;3.60;1.05;;;2.30;99.90;;;;;;5074183;28;20017;-81
2021/01/27 11:12:50;;;;;;;2.00;0.82;;;2.40;99.90;;;;;;5053991;28;20029;-81
2021/01/27 11:15:16;;;;;;;2.03;1.10;;;2.10;99.90;;;;;;5051937;28;20029;-82
2021/01/27 11:17:42;;;;;;;1.33;0.77;;;2.30;99.90;;;;;;5051825;28;20029;-82
2021/01/27 11:20:08;;;;;;;2.47;0.88;;;2.30;99.90;;;;;;5050041;28;20373;-83
2021/01/27 11:22:34;;;;;;;1.40;0.68;;;2.20;99.90;;;;;;5049695;28;20040;-82
2021/01/27 11:25:00;;;;;;;4.23;1.20;;;2.10;99.90;;;;;;5042483;28;20096;-83
2021/01/27 11:27:26;;;;;;;2.40;1.05;;;2.10;99.90;;;;;;5047974;28;20130;-82
2021/01/27 11:29:52;;;;;;;1.37;0.90;;;2.00;99.90;;;;;;5049861;28;20028;-83
2021/01/27 11:32:18;;;;;;;2.10;1.03;;;2.00;99.90;;;;;;5038287;28;20044;-83
2021/01/27 11:34:43;;;;;;;1.63;1.00;;;2.00;99.90;;;;;;5051045;28;20029;-82
2021/01/27 11:37:11;;;;;;;5.40;1.30;;;2.00;99.90;;;;;;5049875;28;20094;-83
2021/01/27 11:39:37;;;;;;;4.88;1.20;;;1.90;99.90;;;;;;5052028;28;20028;-83
2021/01/27 11:42:03;;;;;;;1.85;1.23;;;2.00;99.90;;;;;;5050229;28;20143;-82
2021/01/27 11:44:29;;;;;;;2.42;1.35;;;2.20;99.90;;;;;;5050420;28;20078;-82
2021/01/27 11:46:55;;;;;;;3.33;1.17;;;2.30;99.90;;;;;;5053000;28;20479;-83
2021/01/27 11:49:21;;;;;;;2.80;1.10;;;2.10;99.90;;;;;;5048281;28;20053;-84
2021/01/27 11:51:47;;;;;;;3.72;1.55;;;2.10;99.90;;;;;;5050685;28;20029;-82
2021/01/27 11:54:13;;;;;;;2.97;1.77;;;2.00;99.90;;;;;;5049421;28;20029;-83
2021/01/27 11:56:40;;;;;;;2.83;1.60;;;2.10;99.90;;;;;;5060569;28;20032;-84
2021/01/27 11:59:07;;;;;;;5.30;1.80;;;2.00;99.90;;;;;;5073834;28;20025;-84
2021/01/27 12:01:35;;;;;;;3.30;1.40;;;2.00;99.90;;;;;;5073635;28;20040;-84
2021/01/27 12:04:04;;;;;;;3.35;1.45;;;1.90;99.90;;;;;;5069745;28;20431;-82
2021/01/27 12:06:30;;;;;;;3.63;1.20;;;1.70;99.90;;;;;;5050836;28;20086;-83
2021/01/27 12:08:56;;;;;;;4.47;1.58;;;1.70;99.90;;;;;;5053560;28;20041;-81
2021/01/27 12:11:22;;;;;;;3.07;1.30;;;1.70;99.90;;;;;;5052812;28;20024;-84
2021/01/27 12:13:47;;;;;;;4.97;1.67;;;1.50;99.90;;;;;;5055233;28;20040;-82
2021/01/27 12:16:14;;;;;;;4.17;1.93;;;1.40;99.90;;;;;;5051233;28;20021;-83
2021/01/27 12:18:42;;;;;;;6.13;2.17;;;1.40;99.90;;;;;;5050330;28;20032;-83
2021/01/27 12:21:09;;;;;;;3.60;1.60;;;1.40;99.90;;;;;;5048089;28;20529;-83
2021/01/27 12:23:35;;;;;;;4.37;1.50;;;1.50;99.90;;;;;;5047978;28;20035;-82
2021/01/27 12:26:00;;;;;;;4.73;1.60;;;1.20;99.90;;;;;;5050022;28;20052;-82
2021/01/27 12:28:26;;;;;;;4.03;1.73;;;1.20;99.90;;;;;;5048901;28;20063;-83
2021/01/27 12:30:52;;;;;;;3.13;1.50;;;1.20;99.90;;;;;;5049919;28;20122;-82
2021/01/27 12:33:18;;;;;;;4.43;1.73;;;1.20;99.90;;;;;;5047550;28;20033;-83
2021/01/27 12:35:43;;;;;;;4.23;1.57;;;1.10;99.90;;;;;;5050242;28;20017;-84
2021/01/27 12:38:09;;;;;;;2.53;1.43;;;1.00;99.90;;;;;;5048700;28;20043;-83
2021/01/27 12:40:35;;;;;;;2.97;1.37;;;1.00;99.90;;;;;;5050214;28;20025;-83
2021/01/27 12:43:00;;;;;;;4.77;1.23;;;1.00;99.90;;;;;;5049274;28;20083;-82
2021/01/27 12:45:28;;;;;;;2.97;1.33;;;0.80;99.90;;;;;;5041699;28;20384;-83
2021/01/27 12:47:54;;;;;;;2.33;1.17;;;0.70;99.90;;;;;;5049648;28;20041;-83
2021/01/27 12:50:21;;;;;;;3.03;1.57;;;0.60;99.90;;;;;;5051218;28;20029;-83
2021/01/27 12:52:47;;;;;;;2.23;1.30;;;0.60;99.90;;;;;;5042787;28;20034;-81
2021/01/27 12:55:14;;;;;;;3.90;1.67;;;0.60;99.90;;;;;;5046990;28;20036;-82
2021/01/27 12:57:45;;;;;;;4.47;1.40;;;0.70;99.90;;;;;;5032036;28;20022;-81
2021/01/27 13:00:20;;;;;;;2.67;1.33;;;0.70;99.90;;;;;;5041183;28;20059;-83
2021/01/27 13:02:46;;;;;;;2.20;1.20;;;0.80;99.90;;;;;;5046419;28;20515;-82
2021/01/27 13:05:14;;;;;;;2.27;1.10;;;0.70;99.90;;;;;;5048828;28;20053;-82
2021/01/27 13:07:40;;;;;;;4.00;1.30;;;0.80;99.90;;;;;;5032953;28;20033;-81
2021/01/27 13:10:08;;;;;;;1.90;1.30;;;0.80;99.90;;;;;;5054403;28;20032;-80
2021/01/27 13:12:37;;;;;;;2.43;1.13;;;0.90;99.90;;;;;;5052479;28;20063;-83
2021/01/27 13:15:05;;;;;;;2.55;1.30;;;0.90;99.90;;;;;;5052605;28;20036;-82
2021/01/27 13:17:31;;;;;;;2.47;1.20;;;1.00;99.90;;;;;;5061410;28;20109;-83
2021/01/27 13:19:57;;;;;;;4.00;1.30;;;1.30;99.90;;;;;;5055255;28;20491;-79
2021/01/27 13:22:22;;;;;;;2.43;1.30;;;1.30;99.90;;;;;;5053232;28;20375;-78
2021/01/27 13:24:48;;;;;;;3.73;1.17;;;1.20;99.90;;;;;;5056105;28;21037;-78